sensor_id;sensor_type;location;lat;lon;timestamp;pressure;altitude;pressure_sealevel;temperature;humidity
33155;BME280;19511;42.682;23.332;2023-02-11T00:00:09;96719.84;;;-3.21;100.00
33155;BME280;19511;42.682;23.332;2023-02-11T00:02:35;96844.34;;;-2.42;100.00
33155;BME280;19511;42.682;23.332;2023-02-11T00:05:05;96847.34;;;-2.43;100.00
33155;BME280;19511;42.682;23.332;2023-02-11T00:07:38;96851.47;;;-2.51;100.00
33155;BME280;19511;42.682;23.332;2023-02-11T00:10:07;96850.41;;;-2.55;100.00
33155;BME280;19511;42.682;23.332;2023-02-11T00:12:37;96819.69;;;-2.75;100.00
33155;BME280;19511;42.682;23.332;2023-02-11T00:15:03;96842.91;;;-2.64;100.00
33155;BME280;19511;42.682;23.332;2023-02-11T00:17:31;96830.44;;;-2.65;100.00
33155;BME280;19511;42.682;23.332;2023-02-11T00:19:56;96841.53;;;-2.61;100.00
33155;BME280;19511;42.682;23.332;2023-02-11T00:22:22;96846.94;;;-2.61;100.00
33155;BME280;19511;42.682;23.332;2023-02-11T00:24:47;96837.56;;;-2.74;100.00
33155;BME280;19511;42.682;23.332;2023-02-11T00:27:13;96854.28;;;-2.67;100.00
33155;BME280;19511;42.682;23.332;2023-02-11T00:29:38;96826.47;;;-2.77;100.00
33155;BME280;19511;42.682;23.332;2023-02-11T00:32:05;96786.31;;;-3.05;100.00
33155;BME280;19511;42.682;23.332;2023-02-11T00:34:31;96843.22;;;-2.70;100.00
33155;BME280;19511;42.682;23.332;2023-02-11T00:36:56;96845.06;;;-2.66;100.00
33155;BME280;19511;42.682;23.332;2023-02-11T00:39:22;96711.38;;;-3.49;100.00
33155;BME280;19511;42.682;23.332;2023-02-11T00:41:48;96838.03;;;-2.67;100.00
33155;BME280;19511;42.682;23.332;2023-02-11T00:44:13;96840.28;;;-2.74;100.00
33155;BME280;19511;42.682;23.332;2023-02-11T00:46:39;96837.00;;;-2.71;100.00
33155;BME280;19511;42.682;23.332;2023-02-11T00:49:04;96837.53;;;-2.69;100.00
33155;BME280;19511;42.682;23.332;2023-02-11T00:51:30;96813.59;;;-2.96;100.00
33155;BME280;19511;42.682;23.332;2023-02-11T00:53:55;96808.69;;;-2.89;100.00
33155;BME280;19511;42.682;23.332;2023-02-11T00:56:26;96825.69;;;-2.83;100.00
33155;BME280;19511;42.682;23.332;2023-02-11T00:58:51;96824.19;;;-2.94;100.00
33155;BME280;19511;42.682;23.332;2023-02-11T01:01:18;96824.44;;;-2.96;100.00
33155;BME280;19511;42.682;23.332;2023-02-11T01:03:43;96814.50;;;-3.06;100.00
33155;BME280;19511;42.682;23.332;2023-02-11T01:06:13;96823.94;;;-2.98;100.00
33155;BME280;19511;42.682;23.332;2023-02-11T01:08:38;96808.53;;;-3.03;100.00
33155;BME280;19511;42.682;23.332;2023-02-11T01:11:07;96812.84;;;-3.02;100.00
33155;BME280;19511;42.682;23.332;2023-02-11T01:13:36;96824.69;;;-2.92;100.00
33155;BME280;19511;42.682;23.332;2023-02-11T01:16:05;96802.13;;;-3.17;100.00
33155;BME280;19511;42.682;23.332;2023-02-11T01:18:31;96789.31;;;-3.46;100.00
33155;BME280;19511;42.682;23.332;2023-02-11T01:20:57;96818.38;;;-3.17;100.00
33155;BME280;19511;42.682;23.332;2023-02-11T01:23:22;96795.97;;;-3.28;100.00
33155;BME280;19511;42.682;23.332;2023-02-11T01:25:48;96819.44;;;-3.18;100.00
33155;BME280;19511;42.682;23.332;2023-02-11T01:28:16;96747.72;;;-3.66;100.00
33155;BME280;19511;42.682;23.332;2023-02-11T01:30:42;96818.91;;;-3.20;100.00
33155;BME280;19511;42.682;23.332;2023-02-11T01:33:07;96809.78;;;-3.30;100.00
33155;BME280;19511;42.682;23.332;2023-02-11T01:35:33;96692.81;;;-4.06;100.00
33155;BME280;19511;42.682;23.332;2023-02-11T01:37:58;96818.16;;;-3.26;100.00
33155;BME280;19511;42.682;23.332;2023-02-11T01:40:23;96815.19;;;-3.30;100.00
33155;BME280;19511;42.682;23.332;2023-02-11T01:42:49;96800.06;;;-3.36;100.00
33155;BME280;19511;42.682;23.332;2023-02-11T01:48:31;96726.22;;;-3.86;100.00
33155;BME280;19511;42.682;23.332;2023-02-11T01:51:12;96814.94;;;-3.33;100.00
33155;BME280;19511;42.682;23.332;2023-02-11T01:53:38;96798.44;;;-3.37;100.00
33155;BME280;19511;42.682;23.332;2023-02-11T01:56:24;96805.50;;;-3.41;100.00
33155;BME280;19511;42.682;23.332;2023-02-11T01:59:30;96810.16;;;-3.47;100.00
33155;BME280;19511;42.682;23.332;2023-02-11T02:02:01;96809.31;;;-3.47;100.00
33155;BME280;19511;42.682;23.332;2023-02-11T02:04:40;96790.19;;;-3.61;100.00
33155;BME280;19511;42.682;23.332;2023-02-11T02:07:27;96815.03;;;-3.54;100.00
33155;BME280;19511;42.682;23.332;2023-02-11T02:10:07;96810.41;;;-3.48;100.00
33155;BME280;19511;42.682;23.332;2023-02-11T02:12:36;96685.56;;;-4.21;100.00
33155;BME280;19511;42.682;23.332;2023-02-11T02:15:25;96816.59;;;-3.37;100.00
33155;BME280;19511;42.682;23.332;2023-02-11T02:18:02;96801.50;;;-3.49;100.00
33155;BME280;19511;42.682;23.332;2023-02-11T02:23:51;96811.25;;;-3.53;100.00
33155;BME280;19511;42.682;23.332;2023-02-11T02:35:18;96804.00;;;-3.63;100.00
33155;BME280;19511;42.682;23.332;2023-02-11T02:38:10;96812.41;;;-3.64;100.00
33155;BME280;19511;42.682;23.332;2023-02-11T02:40:49;96675.41;;;-4.45;100.00
33155;BME280;19511;42.682;23.332;2023-02-11T02:43:20;96704.31;;;-4.45;100.00
33155;BME280;19511;42.682;23.332;2023-02-11T02:45:46;96795.94;;;-3.73;100.00
33155;BME280;19511;42.682;23.332;2023-02-11T02:48:30;96809.94;;;-3.66;100.00
33155;BME280;19511;42.682;23.332;2023-02-11T02:59:47;96813.28;;;-3.84;100.00
33155;BME280;19511;42.682;23.332;2023-02-11T03:12:47;96800.34;;;-3.98;100.00
33155;BME280;19511;42.682;23.332;2023-02-11T03:15:15;96814.41;;;-3.96;100.00
33155;BME280;19511;42.682;23.332;2023-02-11T03:17:49;96703.28;;;-4.70;100.00
33155;BME280;19511;42.682;23.332;2023-02-11T03:20:20;96795.53;;;-4.11;100.00
33155;BME280;19511;42.682;23.332;2023-02-11T03:23:07;96818.19;;;-4.02;100.00
33155;BME280;19511;42.682;23.332;2023-02-11T03:25:38;96729.16;;;-4.53;100.00
33155;BME280;19511;42.682;23.332;2023-02-11T03:28:11;96707.09;;;-4.71;100.00
33155;BME280;19511;42.682;23.332;2023-02-11T03:30:44;96685.47;;;-4.81;100.00
33155;BME280;19511;42.682;23.332;2023-02-11T03:33:23;96813.34;;;-4.00;100.00
33155;BME280;19511;42.682;23.332;2023-02-11T03:35:59;96807.94;;;-4.00;100.00
33155;BME280;19511;42.682;23.332;2023-02-11T03:38:34;96806.31;;;-4.01;100.00
33155;BME280;19511;42.682;23.332;2023-02-11T03:41:06;96813.88;;;-4.03;100.00
33155;BME280;19511;42.682;23.332;2023-02-11T03:43:43;96803.63;;;-4.06;100.00
33155;BME280;19511;42.682;23.332;2023-02-11T03:46:11;96800.66;;;-4.15;100.00
33155;BME280;19511;42.682;23.332;2023-02-11T03:48:42;96808.75;;;-4.10;100.00
33155;BME280;19511;42.682;23.332;2023-02-11T03:51:10;96798.78;;;-4.19;100.00
33155;BME280;19511;42.682;23.332;2023-02-11T03:53:45;96804.44;;;-4.16;100.00
33155;BME280;19511;42.682;23.332;2023-02-11T03:56:20;96803.38;;;-4.15;100.00
33155;BME280;19511;42.682;23.332;2023-02-11T03:58:48;96673.66;;;-4.96;100.00
33155;BME280;19511;42.682;23.332;2023-02-11T04:01:22;96802.00;;;-4.07;100.00
33155;BME280;19511;42.682;23.332;2023-02-11T04:03:48;96810.38;;;-4.08;100.00
33155;BME280;19511;42.682;23.332;2023-02-11T04:06:13;96809.81;;;-4.00;100.00
33155;BME280;19511;42.682;23.332;2023-02-11T04:08:38;96738.34;;;-4.49;100.00
33155;BME280;19511;42.682;23.332;2023-02-11T04:11:04;96674.19;;;-4.88;100.00
33155;BME280;19511;42.682;23.332;2023-02-11T04:13:32;96804.16;;;-4.09;100.00
33155;BME280;19511;42.682;23.332;2023-02-11T04:15:57;96700.09;;;-4.82;100.00
33155;BME280;19511;42.682;23.332;2023-02-11T04:18:23;96801.72;;;-4.11;100.00
33155;BME280;19511;42.682;23.332;2023-02-11T04:20:49;96803.63;;;-4.06;100.00
33155;BME280;19511;42.682;23.332;2023-02-11T04:23:15;96776.66;;;-4.37;100.00
33155;BME280;19511;42.682;23.332;2023-02-11T04:25:42;96806.06;;;-4.15;100.00
33155;BME280;19511;42.682;23.332;2023-02-11T04:28:11;96770.75;;;-4.39;100.00
33155;BME280;19511;42.682;23.332;2023-02-11T04:30:37;96804.19;;;-4.19;100.00
33155;BME280;19511;42.682;23.332;2023-02-11T04:33:05;96791.25;;;-4.28;100.00
33155;BME280;19511;42.682;23.332;2023-02-11T04:35:37;96788.53;;;-4.28;100.00
33155;BME280;19511;42.682;23.332;2023-02-11T04:38:02;96793.69;;;-4.36;100.00
33155;BME280;19511;42.682;23.332;2023-02-11T04:40:28;96773.94;;;-4.32;100.00
33155;BME280;19511;42.682;23.332;2023-02-11T04:42:53;96653.16;;;-5.07;100.00
33155;BME280;19511;42.682;23.332;2023-02-11T04:45:21;96794.44;;;-4.15;100.00
33155;BME280;19511;42.682;23.332;2023-02-11T04:47:50;96791.78;;;-4.26;100.00
33155;BME280;19511;42.682;23.332;2023-02-11T04:50:16;96798.84;;;-4.55;100.00
33155;BME280;19511;42.682;23.332;2023-02-11T04:52:45;96812.63;;;-4.83;100.00
33155;BME280;19511;42.682;23.332;2023-02-11T04:55:11;96806.44;;;-5.04;100.00
33155;BME280;19511;42.682;23.332;2023-02-11T04:57:40;96674.41;;;-6.14;100.00
33155;BME280;19511;42.682;23.332;2023-02-11T05:00:08;96787.19;;;-5.54;100.00
33155;BME280;19511;42.682;23.332;2023-02-11T05:02:34;96680.00;;;-6.36;100.00
33155;BME280;19511;42.682;23.332;2023-02-11T05:05:00;96799.84;;;-5.65;100.00
33155;BME280;19511;42.682;23.332;2023-02-11T05:07:29;96802.50;;;-5.75;100.00
33155;BME280;19511;42.682;23.332;2023-02-11T05:09:57;96778.44;;;-5.92;100.00
33155;BME280;19511;42.682;23.332;2023-02-11T05:12:23;96804.06;;;-5.84;100.00
33155;BME280;19511;42.682;23.332;2023-02-11T05:14:48;96790.59;;;-5.84;100.00
33155;BME280;19511;42.682;23.332;2023-02-11T05:17:14;96794.34;;;-5.91;100.00
33155;BME280;19511;42.682;23.332;2023-02-11T05:19:43;96786.81;;;-5.94;100.00
33155;BME280;19511;42.682;23.332;2023-02-11T05:22:09;96777.38;;;-6.01;100.00
33155;BME280;19511;42.682;23.332;2023-02-11T05:24:42;96785.16;;;-6.05;100.00
33155;BME280;19511;42.682;23.332;2023-02-11T05:27:12;96809.38;;;-6.10;100.00
33155;BME280;19511;42.682;23.332;2023-02-11T05:29:37;96752.47;;;-6.77;100.00
33155;BME280;19511;42.682;23.332;2023-02-11T05:32:03;96802.03;;;-6.68;100.00
33155;BME280;19511;42.682;23.332;2023-02-11T05:34:29;96791.72;;;-6.81;100.00
33155;BME280;19511;42.682;23.332;2023-02-11T05:36:54;96796.50;;;-6.89;100.00
33155;BME280;19511;42.682;23.332;2023-02-11T05:39:22;96792.19;;;-6.90;100.00
33155;BME280;19511;42.682;23.332;2023-02-11T05:41:47;96701.75;;;-7.39;100.00
33155;BME280;19511;42.682;23.332;2023-02-11T05:44:17;96790.78;;;-6.65;100.00
33155;BME280;19511;42.682;23.332;2023-02-11T05:46:46;96795.59;;;-6.67;100.00
33155;BME280;19511;42.682;23.332;2023-02-11T05:49:19;96782.38;;;-6.74;100.00
33155;BME280;19511;42.682;23.332;2023-02-11T05:51:49;96804.19;;;-6.70;100.00
33155;BME280;19511;42.682;23.332;2023-02-11T05:54:17;96789.00;;;-6.86;100.00
33155;BME280;19511;42.682;23.332;2023-02-11T05:56:45;96811.63;;;-6.82;100.00
33155;BME280;19511;42.682;23.332;2023-02-11T05:59:13;96809.50;;;-6.80;100.00
33155;BME280;19511;42.682;23.332;2023-02-11T06:01:43;96806.84;;;-6.75;100.00
33155;BME280;19511;42.682;23.332;2023-02-11T06:04:14;96762.97;;;-7.13;100.00
33155;BME280;19511;42.682;23.332;2023-02-11T06:06:48;96807.81;;;-6.92;100.00
33155;BME280;19511;42.682;23.332;2023-02-11T06:09:20;96811.56;;;-6.93;100.00
33155;BME280;19511;42.682;23.332;2023-02-11T06:11:52;96792.91;;;-7.04;100.00
33155;BME280;19511;42.682;23.332;2023-02-11T06:14:21;96810.31;;;-6.80;100.00
33155;BME280;19511;42.682;23.332;2023-02-11T06:16:51;96821.09;;;-6.75;100.00
33155;BME280;19511;42.682;23.332;2023-02-11T06:19:16;96813.91;;;-6.69;100.00
33155;BME280;19511;42.682;23.332;2023-02-11T06:21:48;96819.09;;;-6.57;100.00
33155;BME280;19511;42.682;23.332;2023-02-11T06:24:14;96826.88;;;-6.56;100.00
33155;BME280;19511;42.682;23.332;2023-02-11T06:26:43;96815.84;;;-6.54;100.00
33155;BME280;19511;42.682;23.332;2023-02-11T06:29:09;96805.91;;;-6.53;100.00
33155;BME280;19511;42.682;23.332;2023-02-11T06:31:36;96816.16;;;-6.50;100.00
33155;BME280;19511;42.682;23.332;2023-02-11T06:34:06;96704.69;;;-7.02;100.00
33155;BME280;19511;42.682;23.332;2023-02-11T06:36:35;96820.88;;;-6.25;100.00
33155;BME280;19511;42.682;23.332;2023-02-11T06:39:08;96803.41;;;-6.22;100.00
33155;BME280;19511;42.682;23.332;2023-02-11T06:41:38;96819.13;;;-6.04;100.00
33155;BME280;19511;42.682;23.332;2023-02-11T06:44:04;96718.38;;;-6.66;100.00
33155;BME280;19511;42.682;23.332;2023-02-11T06:46:30;96800.16;;;-6.25;100.00
33155;BME280;19511;42.682;23.332;2023-02-11T06:48:59;96819.69;;;-5.92;100.00
33155;BME280;19511;42.682;23.332;2023-02-11T06:51:25;96821.88;;;-5.83;100.00
33155;BME280;19511;42.682;23.332;2023-02-11T06:53:50;96814.63;;;-5.78;100.00
33155;BME280;19511;42.682;23.332;2023-02-11T06:56:18;96814.91;;;-5.64;100.00
33155;BME280;19511;42.682;23.332;2023-02-11T06:58:50;96809.31;;;-5.47;100.00
33155;BME280;19511;42.682;23.332;2023-02-11T07:01:15;96822.03;;;-5.32;100.00
33155;BME280;19511;42.682;23.332;2023-02-11T07:03:43;96693.00;;;-5.97;100.00
33155;BME280;19511;42.682;23.332;2023-02-11T07:06:14;96830.16;;;-5.01;100.00
33155;BME280;19511;42.682;23.332;2023-02-11T07:08:46;96821.56;;;-4.87;100.00
33155;BME280;19511;42.682;23.332;2023-02-11T07:11:25;96819.38;;;-4.75;100.00
33155;BME280;19511;42.682;23.332;2023-02-11T07:13:54;96809.94;;;-4.57;100.00
33155;BME280;19511;42.682;23.332;2023-02-11T07:16:20;96800.47;;;-4.49;100.00
33155;BME280;19511;42.682;23.332;2023-02-11T07:18:48;96792.38;;;-4.44;100.00
33155;BME280;19511;42.682;23.332;2023-02-11T07:21:20;96813.38;;;-4.26;100.00
33155;BME280;19511;42.682;23.332;2023-02-11T07:23:52;96802.00;;;-4.12;100.00
33155;BME280;19511;42.682;23.332;2023-02-11T07:26:20;96798.25;;;-4.16;100.00
33155;BME280;19511;42.682;23.332;2023-02-11T07:28:53;96796.31;;;-4.11;100.00
33155;BME280;19511;42.682;23.332;2023-02-11T07:31:28;96788.47;;;-4.07;100.00
33155;BME280;19511;42.682;23.332;2023-02-11T07:33:58;96788.97;;;-3.89;100.00
33155;BME280;19511;42.682;23.332;2023-02-11T07:36:29;96793.25;;;-3.78;100.00
33155;BME280;19511;42.682;23.332;2023-02-11T07:38:56;96781.34;;;-3.82;100.00
33155;BME280;19511;42.682;23.332;2023-02-11T07:41:23;96781.56;;;-3.63;100.00
33155;BME280;19511;42.682;23.332;2023-02-11T07:43:57;96780.16;;;-3.55;100.00
33155;BME280;19511;42.682;23.332;2023-02-11T07:46:26;96776.31;;;-3.44;100.00
33155;BME280;19511;42.682;23.332;2023-02-11T07:48:52;96779.47;;;-3.32;100.00
33155;BME280;19511;42.682;23.332;2023-02-11T07:51:23;96771.81;;;-3.19;100.00
33155;BME280;19511;42.682;23.332;2023-02-11T07:53:52;96779.84;;;-3.09;100.00
33155;BME280;19511;42.682;23.332;2023-02-11T07:56:22;96774.97;;;-3.07;100.00
33155;BME280;19511;42.682;23.332;2023-02-11T07:58:52;96773.91;;;-3.06;100.00
33155;BME280;19511;42.682;23.332;2023-02-11T08:01:23;96758.75;;;-3.07;100.00
33155;BME280;19511;42.682;23.332;2023-02-11T08:03:50;96760.47;;;-2.87;100.00
33155;BME280;19511;42.682;23.332;2023-02-11T08:06:22;96759.91;;;-2.84;100.00
33155;BME280;19511;42.682;23.332;2023-02-11T08:08:48;96762.06;;;-2.81;100.00
33155;BME280;19511;42.682;23.332;2023-02-11T08:11:23;96775.78;;;-2.72;100.00
33155;BME280;19511;42.682;23.332;2023-02-11T08:13:49;96760.34;;;-2.71;100.00
33155;BME280;19511;42.682;23.332;2023-02-11T08:16:22;96659.16;;;-3.45;100.00
33155;BME280;19511;42.682;23.332;2023-02-11T08:18:49;96770.34;;;-2.72;100.00
33155;BME280;19511;42.682;23.332;2023-02-11T08:21:21;96762.66;;;-2.59;100.00
33155;BME280;19511;42.682;23.332;2023-02-11T08:23:53;96752.38;;;-2.57;100.00
33155;BME280;19511;42.682;23.332;2023-02-11T08:26:21;96762.00;;;-2.46;100.00
33155;BME280;19511;42.682;23.332;2023-02-11T08:28:49;96763.53;;;-2.35;100.00
33155;BME280;19511;42.682;23.332;2023-02-11T08:31:20;96758.84;;;-2.29;100.00
33155;BME280;19511;42.682;23.332;2023-02-11T08:33:46;96754.38;;;-2.44;100.00
33155;BME280;19511;42.682;23.332;2023-02-11T08:36:18;96773.53;;;-2.35;100.00
33155;BME280;19511;42.682;23.332;2023-02-11T08:38:44;96762.94;;;-2.32;100.00
33155;BME280;19511;42.682;23.332;2023-02-11T08:41:10;96751.53;;;-2.28;100.00
33155;BME280;19511;42.682;23.332;2023-02-11T08:43:39;96644.31;;;-2.88;100.00
33155;BME280;19511;42.682;23.332;2023-02-11T08:46:07;96760.94;;;-2.21;100.00
33155;BME280;19511;42.682;23.332;2023-02-11T08:48:32;96764.38;;;-2.15;100.00
33155;BME280;19511;42.682;23.332;2023-02-11T08:50:58;96760.72;;;-2.00;100.00
33155;BME280;19511;42.682;23.332;2023-02-11T08:53:26;96741.78;;;-2.05;100.00
33155;BME280;19511;42.682;23.332;2023-02-11T08:55:54;96767.19;;;-1.77;100.00
33155;BME280;19511;42.682;23.332;2023-02-11T08:58:20;96765.97;;;-1.66;100.00
33155;BME280;19511;42.682;23.332;2023-02-11T09:00:46;96710.97;;;-1.90;100.00
33155;BME280;19511;42.682;23.332;2023-02-11T09:03:13;96755.44;;;-1.48;100.00
33155;BME280;19511;42.682;23.332;2023-02-11T09:05:46;96655.59;;;-2.08;100.00
33155;BME280;19511;42.682;23.332;2023-02-11T09:08:12;96753.53;;;-1.28;100.00
33155;BME280;19511;42.682;23.332;2023-02-11T09:10:38;96759.59;;;-0.99;100.00
33155;BME280;19511;42.682;23.332;2023-02-11T09:13:05;96744.53;;;-0.91;100.00
33155;BME280;19511;42.682;23.332;2023-02-11T09:15:31;96742.16;;;-0.78;100.00
33155;BME280;19511;42.682;23.332;2023-02-11T09:17:57;96731.66;;;-0.66;100.00
33155;BME280;19511;42.682;23.332;2023-02-11T09:20:23;96745.06;;;-0.42;100.00
33155;BME280;19511;42.682;23.332;2023-02-11T09:22:50;96671.59;;;-0.97;100.00
33155;BME280;19511;42.682;23.332;2023-02-11T09:25:16;96744.53;;;-0.58;100.00
33155;BME280;19511;42.682;23.332;2023-02-11T09:27:41;96731.25;;;-0.59;100.00
33155;BME280;19511;42.682;23.332;2023-02-11T09:30:07;96715.44;;;-0.57;100.00
33155;BME280;19511;42.682;23.332;2023-02-11T09:32:33;96717.38;;;-0.44;99.33
33155;BME280;19511;42.682;23.332;2023-02-11T09:34:58;96724.34;;;-0.24;97.58
33155;BME280;19511;42.682;23.332;2023-02-11T09:37:34;96704.88;;;-0.45;95.92
33155;BME280;19511;42.682;23.332;2023-02-11T09:40:07;96720.00;;;-0.25;94.45
33155;BME280;19511;42.682;23.332;2023-02-11T09:45:21;96714.56;;;0.03;88.34
33155;BME280;19511;42.682;23.332;2023-02-11T09:48:16;96720.00;;;-0.11;86.61
33155;BME280;19511;42.682;23.332;2023-02-11T09:50:51;96645.38;;;-0.74;87.52
33155;BME280;19511;42.682;23.332;2023-02-11T09:55:50;96692.72;;;-0.34;87.90
33155;BME280;19511;42.682;23.332;2023-02-11T10:01:11;96666.50;;;-0.02;89.06
33155;BME280;19511;42.682;23.332;2023-02-11T10:06:36;96681.97;;;0.40;83.80
33155;BME280;19511;42.682;23.332;2023-02-11T10:09:39;96566.44;;;-0.27;79.50
33155;BME280;19511;42.682;23.332;2023-02-11T10:15:30;96660.19;;;0.40;75.63
33155;BME280;19511;42.682;23.332;2023-02-11T10:18:29;96656.53;;;0.44;72.60
33155;BME280;19511;42.682;23.332;2023-02-11T10:23:29;96635.56;;;0.45;71.13
33155;BME280;19511;42.682;23.332;2023-02-11T10:25:58;96627.41;;;0.68;72.90
33155;BME280;19511;42.682;23.332;2023-02-11T10:28:34;96507.88;;;0.12;72.33
33155;BME280;19511;42.682;23.332;2023-02-11T10:31:15;96595.91;;;0.75;70.55
33155;BME280;19511;42.682;23.332;2023-02-11T10:34:02;96521.41;;;0.48;69.84
33155;BME280;19511;42.682;23.332;2023-02-11T10:36:32;96597.38;;;1.13;68.84
33155;BME280;19511;42.682;23.332;2023-02-11T10:38:59;96598.75;;;1.33;67.92
33155;BME280;19511;42.682;23.332;2023-02-11T10:41:31;96563.44;;;1.28;65.92
33155;BME280;19511;42.682;23.332;2023-02-11T10:43:59;96566.22;;;1.37;65.91
33155;BME280;19511;42.682;23.332;2023-02-11T10:46:29;96566.56;;;1.44;63.23
33155;BME280;19511;42.682;23.332;2023-02-11T10:48:56;96470.28;;;0.77;63.96
33155;BME280;19511;42.682;23.332;2023-02-11T10:51:26;96566.91;;;1.51;60.55
33155;BME280;19511;42.682;23.332;2023-02-11T10:56:35;96439.50;;;0.68;59.38
33155;BME280;19511;42.682;23.332;2023-02-11T11:02:15;96538.44;;;1.26;60.15
33155;BME280;19511;42.682;23.332;2023-02-11T11:04:48;96550.81;;;1.41;59.64
33155;BME280;19511;42.682;23.332;2023-02-11T11:07:23;96546.38;;;1.45;59.67
33155;BME280;19511;42.682;23.332;2023-02-11T11:09:55;96546.38;;;1.62;60.33
33155;BME280;19511;42.682;23.332;2023-02-11T11:15:20;96540.34;;;1.83;58.05
33155;BME280;19511;42.682;23.332;2023-02-11T11:17:45;96506.78;;;1.56;58.66
33155;BME280;19511;42.682;23.332;2023-02-11T11:22:53;96517.72;;;1.91;57.48
33155;BME280;19511;42.682;23.332;2023-02-11T11:25:31;96512.41;;;2.04;55.46
33155;BME280;19511;42.682;23.332;2023-02-11T11:27:59;96524.13;;;2.22;54.41
33155;BME280;19511;42.682;23.332;2023-02-11T11:30:30;96506.78;;;2.00;54.33
33155;BME280;19511;42.682;23.332;2023-02-11T11:33:11;96514.66;;;2.19;55.98
33155;BME280;19511;42.682;23.332;2023-02-11T11:38:34;96492.81;;;2.02;54.23
33155;BME280;19511;42.682;23.332;2023-02-11T11:41:27;96519.16;;;2.24;54.15
33155;BME280;19511;42.682;23.332;2023-02-11T11:43:58;96502.28;;;2.13;53.72
33155;BME280;19511;42.682;23.332;2023-02-11T11:46:33;96492.81;;;2.10;53.74
33155;BME280;19511;42.682;23.332;2023-02-11T11:49:16;96498.75;;;2.30;54.29
33155;BME280;19511;42.682;23.332;2023-02-11T11:54:17;96484.13;;;2.26;52.02
33155;BME280;19511;42.682;23.332;2023-02-11T11:56:59;96482.53;;;2.34;53.61
33155;BME280;19511;42.682;23.332;2023-02-11T11:59:26;96486.22;;;2.47;54.84
33155;BME280;19511;42.682;23.332;2023-02-11T12:01:59;96484.59;;;2.54;54.07
33155;BME280;19511;42.682;23.332;2023-02-11T12:12:54;96461.59;;;2.55;53.75
33155;BME280;19511;42.682;23.332;2023-02-11T12:25:47;96439.59;;;2.90;47.75
33155;BME280;19511;42.682;23.332;2023-02-11T12:31:43;96413.59;;;2.84;47.96
33155;BME280;19511;42.682;23.332;2023-02-11T12:34:41;96426.97;;;2.77;46.86
33155;BME280;19511;42.682;23.332;2023-02-11T12:53:43;96402.75;;;3.26;48.34
33155;BME280;19511;42.682;23.332;2023-02-11T12:56:31;96387.00;;;3.23;48.63
33155;BME280;19511;42.682;23.332;2023-02-11T12:59:07;96375.13;;;3.19;48.82
33155;BME280;19511;42.682;23.332;2023-02-11T13:01:38;96373.81;;;3.25;48.68
33155;BME280;19511;42.682;23.332;2023-02-11T13:04:57;96379.56;;;3.33;48.69
33155;BME280;19511;42.682;23.332;2023-02-11T13:07:13;96390.88;;;3.43;48.47
33155;BME280;19511;42.682;23.332;2023-02-11T13:12:37;96380.63;;;3.40;49.02
33155;BME280;19511;42.682;23.332;2023-02-11T13:15:24;96379.66;;;3.36;47.21
33155;BME280;19511;42.682;23.332;2023-02-11T13:23:24;96371.53;;;3.49;47.65
33155;BME280;19511;42.682;23.332;2023-02-11T13:31:08;96356.72;;;3.71;47.61
33155;BME280;19511;42.682;23.332;2023-02-11T13:33:39;96351.47;;;3.78;47.39
33155;BME280;19511;42.682;23.332;2023-02-11T13:38:35;96350.97;;;3.64;47.39
33155;BME280;19511;42.682;23.332;2023-02-11T13:41:14;96313.50;;;3.43;46.57
33155;BME280;19511;42.682;23.332;2023-02-11T13:43:41;96367.25;;;3.81;46.61
33155;BME280;19511;42.682;23.332;2023-02-11T13:46:11;96271.16;;;3.28;45.69
33155;BME280;19511;42.682;23.332;2023-02-11T13:48:50;96332.53;;;3.73;44.52
33155;BME280;19511;42.682;23.332;2023-02-11T13:51:33;96332.09;;;3.71;43.88
33155;BME280;19511;42.682;23.332;2023-02-11T13:53:59;96334.00;;;3.70;43.18
33155;BME280;19511;42.682;23.332;2023-02-11T13:58:58;96342.16;;;3.79;43.58
33155;BME280;19511;42.682;23.332;2023-02-11T14:04:31;96307.06;;;3.60;43.22
33155;BME280;19511;42.682;23.332;2023-02-11T14:09:59;96285.88;;;3.36;42.59
33155;BME280;19511;42.682;23.332;2023-02-11T14:12:33;96303.22;;;3.40;42.69
33155;BME280;19511;42.682;23.332;2023-02-11T14:15:16;96204.97;;;2.80;43.16
33155;BME280;19511;42.682;23.332;2023-02-11T14:17:49;96315.34;;;3.51;43.45
33155;BME280;19511;42.682;23.332;2023-02-11T14:20:37;96323.13;;;3.49;44.11
33155;BME280;19511;42.682;23.332;2023-02-11T14:23:15;96308.41;;;3.54;44.08
33155;BME280;19511;42.682;23.332;2023-02-11T14:26:01;96320.88;;;3.64;44.45
33155;BME280;19511;42.682;23.332;2023-02-11T14:28:29;96308.53;;;3.57;44.92
33155;BME280;19511;42.682;23.332;2023-02-11T14:31:11;96337.78;;;3.66;45.15
33155;BME280;19511;42.682;23.332;2023-02-11T14:33:58;96323.41;;;3.69;45.52
33155;BME280;19511;42.682;23.332;2023-02-11T14:36:46;96215.09;;;3.01;46.26
33155;BME280;19511;42.682;23.332;2023-02-11T14:42:29;96322.94;;;3.67;47.08
33155;BME280;19511;42.682;23.332;2023-02-11T14:45:04;96325.47;;;3.72;47.17
33155;BME280;19511;42.682;23.332;2023-02-11T14:50:27;96323.75;;;3.67;47.46
33155;BME280;19511;42.682;23.332;2023-02-11T14:53:00;96321.34;;;3.66;47.20
33155;BME280;19511;42.682;23.332;2023-02-11T14:55:31;96325.56;;;3.63;47.46
33155;BME280;19511;42.682;23.332;2023-02-11T15:00:46;96316.41;;;3.59;48.07
33155;BME280;19511;42.682;23.332;2023-02-11T15:03:38;96299.50;;;3.45;48.33
33155;BME280;19511;42.682;23.332;2023-02-11T15:08:53;96303.63;;;3.30;48.89
33155;BME280;19511;42.682;23.332;2023-02-11T15:11:21;96317.81;;;3.44;48.73
33155;BME280;19511;42.682;23.332;2023-02-11T15:13:49;96290.94;;;3.25;48.25
33155;BME280;19511;42.682;23.332;2023-02-11T15:16:22;96314.84;;;3.37;48.90
33155;BME280;19511;42.682;23.332;2023-02-11T15:18:56;96296.81;;;3.36;49.03
33155;BME280;19511;42.682;23.332;2023-02-11T15:21:26;96297.50;;;3.33;49.63
33155;BME280;19511;42.682;23.332;2023-02-11T15:23:59;96295.28;;;3.26;49.66
33155;BME280;19511;42.682;23.332;2023-02-11T15:26:26;96297.38;;;3.29;49.82